Terminal Aerodrome Forecast
Issued by NWS

Home | Current Version | Previous Version | Graphics & Text | Print | Product List | Glossary On
Versions: 1 2 3 4 5 6 7 8 9 10 11 12 13 14 15 16 17 18 19 20 21 22 23 24 25 26 27 28 29 30 31 32 33 34 35
000
FTUS43 KLOT 020500
TAFORD
TAF
KORD 020540Z 0206/0312 16007KT P6SM VCSH SCT060 BKN090
     FM020800 16006KT 6SM -SHRA BKN060 OVC100
     FM021100 18009KT P6SM SCT020 BKN035 OVC090
     FM022100 18010G16KT 5SM -SHRA VCTS OVC040CB
      TEMPO 0222/0302 2SM TSRA SCT020 OVC030CB
     FM030400 20012KT 4SM SHRA BR SCT007 BKN012 OVC030=

USA.gov is the U.S. government's official web portal to all federal, state and local government web resources and services.